Time;durP1;ratioP1;P1;durP2;ratioP2;P2;SDS_P1;SDS_P2;PMS_P1;PMS_P2;Temp;Humidity;BMP_temperature;BMP_pressure;BME280_temperature;BME280_humidity;BME280_pressure;Samples;Min_cycle;Max_cycle;Signal;HPM_P1;HPM_P2
2023/03/20 00:01:10;;;;;;;;;;;9.10;85.80;;;;;;5134672;28;19921;-69
2023/03/20 00:03:36;;;;;;;;;;;9.10;85.90;;;;;;5134587;28;19922;-70
2023/03/20 00:06:01;;;;;;;;;;;9.00;86.50;;;;;;5133539;27;19920;-69
2023/03/20 00:08:27;;;;;;;;;;;9.00;85.80;;;;;;5116320;28;19968;-69
2023/03/20 00:10:53;;;;;;;;;;;9.10;85.90;;;;;;5134437;28;19930;-69
2023/03/20 00:13:23;;;;;;;;;;;9.00;85.90;;;;;;5114839;28;20357;-70
2023/03/20 00:15:49;;;;;;;;;;;9.00;85.90;;;;;;5134520;28;20364;-70
2023/03/20 00:18:18;;;;;;;;;;;9.10;85.90;;;;;;5134344;28;19919;-70
2023/03/20 00:20:45;;;;;;;;;;;9.00;85.90;;;;;;5134310;28;19973;-70
2023/03/20 00:23:11;;;;;;;;;;;9.00;86.00;;;;;;5134244;28;19927;-69
2023/03/20 00:25:38;;;;;;;;;;;9.00;85.90;;;;;;5134318;28;19926;-69
2023/03/20 00:28:22;;;;;;;;;;;9.00;86.00;;;;;;5134342;28;20314;-69
2023/03/20 00:30:48;;;;;;;;;;;9.00;85.90;;;;;;5130462;28;19922;-70
2023/03/20 00:33:13;;;;;;;;;;;9.00;85.90;;;;;;5134183;28;19915;-69
2023/03/20 00:35:39;;;;;;;;;;;9.00;85.90;;;;;;5134121;28;20429;-69
2023/03/20 00:38:04;;;;;;;;;;;8.90;85.90;;;;;;5134215;28;19937;-69
2023/03/20 00:40:30;;;;;;;;;;;9.00;85.90;;;;;;5134155;28;20347;-69
2023/03/20 00:42:59;;;;;;;;;;;9.00;85.90;;;;;;5134047;28;20002;-69
2023/03/20 00:45:25;;;;;;;;;;;9.10;86.00;;;;;;5133982;28;19963;-69
2023/03/20 00:47:51;;;;;;;;;;;9.00;85.90;;;;;;5134142;28;19916;-69
2023/03/20 00:50:20;;;;;;;;;;;9.00;85.90;;;;;;5134002;28;19916;-69
2023/03/20 00:52:46;;;;;;;;;;;9.00;85.90;;;;;;5133969;28;20085;-69
2023/03/20 00:55:12;;;;;;;;;;;8.90;85.90;;;;;;5134066;28;19915;-69
2023/03/20 00:57:41;;;;;;;;;;;9.00;85.90;;;;;;5133899;28;20383;-69
2023/03/20 01:00:13;;;;;;;;;;;9.10;86.00;;;;;;5113295;28;20365;-69
2023/03/20 01:02:38;;;;;;;;;;;9.00;86.00;;;;;;5133623;28;19922;-69
2023/03/20 01:05:04;;;;;;;;;;;9.00;86.00;;;;;;5133376;28;19923;-70
2023/03/20 01:07:30;;;;;;;;;;;8.90;86.00;;;;;;5133420;28;20311;-70
2023/03/20 01:09:55;;;;;;;;;;;8.90;86.00;;;;;;5133257;28;19919;-69
2023/03/20 01:12:21;;;;;;;;;;;8.90;85.90;;;;;;5133293;28;19922;-69
2023/03/20 01:14:50;;;;;;;;;;;9.00;86.00;;;;;;5133604;28;19911;-69
2023/03/20 01:17:17;;;;;;;;;;;8.90;86.00;;;;;;5132951;27;19964;-69
2023/03/20 01:19:42;;;;;;;;;;;9.10;86.00;;;;;;5133106;28;19922;-70
2023/03/20 01:22:08;;;;;;;;;;;8.90;85.90;;;;;;5133182;28;19916;-70
2023/03/20 01:24:33;;;;;;;;;;;8.90;86.00;;;;;;5132991;28;19919;-70
2023/03/20 01:27:02;;;;;;;;;;;8.90;86.00;;;;;;5133483;28;19922;-70
2023/03/20 01:29:29;;;;;;;;;;;8.90;86.00;;;;;;5133173;28;19916;-70
2023/03/20 01:31:55;;;;;;;;;;;8.80;86.00;;;;;;5114231;28;20284;-69
2023/03/20 01:34:21;;;;;;;;;;;8.90;86.00;;;;;;5132965;28;19927;-69
2023/03/20 01:36:49;;;;;;;;;;;8.80;86.00;;;;;;5132921;28;19916;-70
2023/03/20 01:39:14;;;;;;;;;;;8.90;86.00;;;;;;5133364;28;19912;-70
2023/03/20 01:41:40;;;;;;;;;;;8.80;85.90;;;;;;5132954;28;19999;-69
2023/03/20 01:44:15;;;;;;;;;;;8.80;86.00;;;;;;5133517;28;20356;-69
2023/03/20 01:46:42;;;;;;;;;;;8.80;86.00;;;;;;5132964;28;19916;-70
2023/03/20 01:49:27;;;;;;;;;;;8.80;86.00;;;;;;5132891;28;19918;-70
2023/03/20 01:51:55;;;;;;;;;;;8.80;86.00;;;;;;5113197;28;19915;-69
2023/03/20 01:54:23;;;;;;;;;;;8.80;86.00;;;;;;5112551;28;19973;-70
2023/03/20 01:56:50;;;;;;;;;;;8.80;86.10;;;;;;5114272;28;20368;-69
2023/03/20 01:59:20;;;;;;;;;;;8.80;86.10;;;;;;5113936;28;20018;-69
2023/03/20 02:01:45;;;;;;;;;;;8.80;86.10;;;;;;5132748;28;19922;-70
2023/03/20 02:04:12;;;;;;;;;;;8.80;86.10;;;;;;5132747;28;19916;-70
2023/03/20 02:06:39;;;;;;;;;;;8.70;86.00;;;;;;5132764;28;20291;-69
2023/03/20 02:09:04;;;;;;;;;;;8.80;86.10;;;;;;5132694;28;19956;-70
2023/03/20 02:11:30;;;;;;;;;;;8.80;86.20;;;;;;5132613;28;19919;-69
2023/03/20 02:13:57;;;;;;;;;;;8.70;86.10;;;;;;5132668;28;19958;-70
2023/03/20 02:16:23;;;;;;;;;;;8.70;86.10;;;;;;5114096;28;19942;-69
2023/03/20 02:18:50;;;;;;;;;;;8.70;86.20;;;;;;5132452;28;20432;-70
2023/03/20 02:21:36;;;;;;;;;;;8.70;86.20;;;;;;5133011;28;20018;-70
2023/03/20 02:24:14;;;;;;;;;;;8.70;86.10;;;;;;5115409;28;19915;-70
2023/03/20 02:26:59;;;;;;;;;;;8.70;86.10;;;;;;5132394;28;19915;-70
2023/03/20 02:29:36;;;;;;;;;;;8.70;86.20;;;;;;5134972;28;19922;-70
2023/03/20 02:32:10;;;;;;;;;;;8.70;86.10;;;;;;5135896;28;20396;-70
2023/03/20 02:34:47;;;;;;;;;;;8.60;86.10;;;;;;5135884;28;19927;-70
2023/03/20 02:37:26;;;;;;;;;;;8.70;86.10;;;;;;5135854;28;19916;-69
2023/03/20 02:40:12;;;;;;;;;;;8.70;86.20;;;;;;5115763;28;20010;-69
2023/03/20 02:42:52;;;;;;;;;;;8.70;86.20;;;;;;5119316;28;19915;-70
2023/03/20 02:45:37;;;;;;;;;;;8.70;86.20;;;;;;5115714;28;20010;-69
2023/03/20 02:48:23;;;;;;;;;;;8.70;86.20;;;;;;5135593;28;19954;-69
2023/03/20 02:50:59;;;;;;;;;;;8.70;86.20;;;;;;5120824;28;19915;-70
2023/03/20 02:53:37;;;;;;;;;;;8.70;86.20;;;;;;5116837;28;19911;-69
2023/03/20 02:56:11;;;;;;;;;;;8.80;86.20;;;;;;5131812;28;20020;-69
2023/03/20 02:58:44;;;;;;;;;;;8.70;86.10;;;;;;5132636;28;19916;-70
2023/03/20 03:01:14;;;;;;;;;;;8.60;86.00;;;;;;5133112;28;19938;-69
2023/03/20 03:03:43;;;;;;;;;;;8.60;86.00;;;;;;5135347;28;20403;-69
2023/03/20 03:06:11;;;;;;;;;;;8.70;86.10;;;;;;5135525;28;19915;-70
2023/03/20 03:08:39;;;;;;;;;;;8.60;86.00;;;;;;5135484;28;19923;-70
2023/03/20 03:11:07;;;;;;;;;;;8.70;86.20;;;;;;5113120;28;19916;-70
2023/03/20 03:13:36;;;;;;;;;;;8.70;86.10;;;;;;5116843;28;19921;-70
2023/03/20 03:16:05;;;;;;;;;;;8.60;86.00;;;;;;5135275;28;19919;-70
2023/03/20 03:18:33;;;;;;;;;;;8.60;86.00;;;;;;5135150;28;19994;-70
2023/03/20 03:20:59;;;;;;;;;;;8.60;86.00;;;;;;5135179;28;19915;-70
2023/03/20 03:23:31;;;;;;;;;;;8.60;85.90;;;;;;5135193;28;20391;-70
2023/03/20 03:25:58;;;;;;;;;;;8.60;85.90;;;;;;5135171;28;19916;-70
2023/03/20 03:28:36;;;;;;;;;;;8.60;86.00;;;;;;5114754;28;19959;-70
2023/03/20 03:31:04;;;;;;;;;;;8.50;85.90;;;;;;5134921;28;20292;-69
2023/03/20 03:33:31;;;;;;;;;;;8.50;85.90;;;;;;5134924;28;19920;-70
2023/03/20 03:36:04;;;;;;;;;;;8.50;86.00;;;;;;5134796;28;19925;-69
2023/03/20 03:38:46;;;;;;;;;;;8.40;86.00;;;;;;5115187;27;20337;-69
2023/03/20 03:41:18;;;;;;;;;;;8.40;86.00;;;;;;5131445;28;19971;-69
2023/03/20 03:43:50;;;;;;;;;;;8.40;86.00;;;;;;5131812;28;19965;-69
2023/03/20 03:46:26;;;;;;;;;;;8.40;86.10;;;;;;5131729;28;19964;-69
2023/03/20 03:48:55;;;;;;;;;;;8.40;86.10;;;;;;5133320;28;19915;-70
2023/03/20 03:51:22;;;;;;;;;;;8.40;86.10;;;;;;5134841;28;19915;-70
2023/03/20 03:53:54;;;;;;;;;;;8.30;86.00;;;;;;5134737;28;19921;-70
2023/03/20 03:56:22;;;;;;;;;;;8.30;86.00;;;;;;5131856;28;19926;-70
2023/03/20 03:58:50;;;;;;;;;;;8.30;86.10;;;;;;5134678;28;19916;-69
2023/03/20 04:01:16;;;;;;;;;;;8.20;86.00;;;;;;5112378;28;19916;-69
2023/03/20 04:03:45;;;;;;;;;;;8.20;86.00;;;;;;5134492;28;19921;-69
2023/03/20 04:06:12;;;;;;;;;;;8.20;86.10;;;;;;5134432;28;19915;-69
2023/03/20 04:08:39;;;;;;;;;;;8.20;86.10;;;;;;5134474;28;19922;-69
2023/03/20 04:11:05;;;;;;;;;;;8.10;86.10;;;;;;5134272;28;19922;-69
2023/03/20 04:13:30;;;;;;;;;;;8.20;86.20;;;;;;5134103;28;19915;-69
2023/03/20 04:15:56;;;;;;;;;;;8.00;86.20;;;;;;5134140;28;19959;-69
2023/03/20 04:18:21;;;;;;;;;;;8.00;86.20;;;;;;5134221;28;20402;-69
2023/03/20 04:20:47;;;;;;;;;;;8.10;86.30;;;;;;5134079;28;20018;-69
2023/03/20 04:23:13;;;;;;;;;;;8.00;86.30;;;;;;5115700;28;19922;-69
2023/03/20 04:25:39;;;;;;;;;;;8.00;86.30;;;;;;5133982;28;19916;-70
2023/03/20 04:28:05;;;;;;;;;;;7.90;86.30;;;;;;5133924;28;19922;-69
2023/03/20 04:30:31;;;;;;;;;;;7.90;86.30;;;;;;5134024;28;20373;-70
2023/03/20 04:32:56;;;;;;;;;;;7.80;86.30;;;;;;5133872;28;19915;-69
2023/03/20 04:35:22;;;;;;;;;;;7.90;86.30;;;;;;5133762;28;19919;-69
2023/03/20 04:37:48;;;;;;;;;;;7.90;86.30;;;;;;5133671;28;19916;-69
2023/03/20 04:40:14;;;;;;;;;;;7.80;86.30;;;;;;5133850;28;20385;-70
2023/03/20 04:42:39;;;;;;;;;;;7.80;86.60;;;;;;5113529;28;20349;-69
2023/03/20 04:45:05;;;;;;;;;;;7.80;86.40;;;;;;5133840;28;20771;-69
2023/03/20 04:47:31;;;;;;;;;;;7.70;86.40;;;;;;5134215;28;19923;-69
2023/03/20 04:49:56;;;;;;;;;;;7.70;86.50;;;;;;5133744;28;19919;-69
2023/03/20 04:52:22;;;;;;;;;;;7.70;86.50;;;;;;5132993;27;20018;-69
2023/03/20 04:54:47;;;;;;;;;;;7.70;86.50;;;;;;5133605;28;19919;-69
2023/03/20 04:57:13;;;;;;;;;;;7.60;86.40;;;;;;5133544;28;19962;-68
2023/03/20 04:59:38;;;;;;;;;;;7.80;86.40;;;;;;5133549;28;19929;-69
2023/03/20 05:02:04;;;;;;;;;;;7.70;87.00;;;;;;5133553;28;19919;-69
2023/03/20 05:04:30;;;;;;;;;;;7.60;86.30;;;;;;5115609;28;19915;-69
2023/03/20 05:06:55;;;;;;;;;;;7.60;86.30;;;;;;5133711;28;19926;-69
2023/03/20 05:09:21;;;;;;;;;;;7.60;86.30;;;;;;5133587;28;19919;-69
2023/03/20 05:11:46;;;;;;;;;;;7.70;86.30;;;;;;5133655;28;19915;-69
2023/03/20 05:14:12;;;;;;;;;;;7.60;86.30;;;;;;5133539;28;19911;-69
2023/03/20 05:16:38;;;;;;;;;;;7.60;86.30;;;;;;5133646;28;19916;-69
2023/03/20 05:19:04;;;;;;;;;;;7.60;86.30;;;;;;5115485;28;20335;-69
2023/03/20 05:21:29;;;;;;;;;;;7.60;86.30;;;;;;5115171;28;19950;-69
2023/03/20 05:23:55;;;;;;;;;;;7.60;86.30;;;;;;5114227;28;20321;-69
2023/03/20 05:26:20;;;;;;;;;;;7.50;86.20;;;;;;5115832;28;20262;-69
2023/03/20 05:28:46;;;;;;;;;;;7.60;86.20;;;;;;5133936;28;19966;-69
2023/03/20 05:31:12;;;;;;;;;;;7.60;86.20;;;;;;5133551;28;19955;-69
2023/03/20 05:33:37;;;;;;;;;;;7.60;86.20;;;;;;5133509;28;19923;-68
2023/03/20 05:36:03;;;;;;;;;;;7.60;86.20;;;;;;5133340;28;19919;-69
2023/03/20 05:38:29;;;;;;;;;;;7.60;86.10;;;;;;5133436;28;19923;-69
2023/03/20 05:40:55;;;;;;;;;;;7.60;86.20;;;;;;5133401;28;20299;-69
2023/03/20 05:43:20;;;;;;;;;;;7.60;86.10;;;;;;5133222;28;19964;-69
2023/03/20 05:45:46;;;;;;;;;;;7.50;86.10;;;;;;5133117;28;20018;-69
2023/03/20 05:48:11;;;;;;;;;;;7.60;86.10;;;;;;5133050;28;19927;-69
2023/03/20 05:50:37;;;;;;;;;;;7.60;86.10;;;;;;5112928;28;20364;-68
2023/03/20 05:53:03;;;;;;;;;;;7.60;86.20;;;;;;5114175;28;19915;-68
2023/03/20 05:55:28;;;;;;;;;;;7.50;86.00;;;;;;5132795;28;19920;-68
2023/03/20 05:57:54;;;;;;;;;;;7.70;86.10;;;;;;5132991;28;20011;-69
2023/03/20 06:00:19;;;;;;;;;;;7.60;86.10;;;;;;5114538;28;20017;-69
2023/03/20 06:02:45;;;;;;;;;;;7.60;86.00;;;;;;5133287;27;19916;-69
2023/03/20 06:05:10;;;;;;;;;;;7.50;86.00;;;;;;5136689;28;19915;-69
2023/03/20 06:07:36;;;;;;;;;;;7.60;86.00;;;;;;5101225;28;20333;-71
2023/03/20 06:10:02;;;;;;;;;;;7.60;86.00;;;;;;5136785;28;20301;-70
2023/03/20 06:12:28;;;;;;;;;;;7.60;86.00;;;;;;5136553;28;19915;-70
2023/03/20 06:14:54;;;;;;;;;;;7.50;85.90;;;;;;5136361;28;19927;-70
2023/03/20 06:17:19;;;;;;;;;;;7.60;85.90;;;;;;5136425;28;19916;-70
2023/03/20 06:19:45;;;;;;;;;;;7.60;85.90;;;;;;5136373;28;20367;-69
2023/03/20 06:22:10;;;;;;;;;;;7.60;85.80;;;;;;5136169;28;19922;-70
2023/03/20 06:24:37;;;;;;;;;;;7.60;85.80;;;;;;5136135;28;19968;-70
2023/03/20 06:27:02;;;;;;;;;;;7.60;85.80;;;;;;5136168;28;19919;-70
2023/03/20 06:29:28;;;;;;;;;;;7.70;85.80;;;;;;5136228;28;20433;-70
2023/03/20 06:31:53;;;;;;;;;;;7.70;85.70;;;;;;5136244;28;19915;-70
2023/03/20 06:34:19;;;;;;;;;;;7.70;85.60;;;;;;5117770;28;19915;-70
2023/03/20 06:36:44;;;;;;;;;;;7.80;85.60;;;;;;5136286;28;19958;-70
2023/03/20 06:39:10;;;;;;;;;;;7.80;85.50;;;;;;5117109;28;19925;-70
2023/03/20 06:41:35;;;;;;;;;;;7.90;85.50;;;;;;5136164;28;19916;-70
2023/03/20 06:44:02;;;;;;;;;;;7.80;85.30;;;;;;5136072;28;19915;-70
2023/03/20 06:46:28;;;;;;;;;;;7.80;85.30;;;;;;5136066;28;19922;-70
2023/03/20 06:48:53;;;;;;;;;;;7.90;85.30;;;;;;5135856;28;19915;-70
2023/03/20 06:51:19;;;;;;;;;;;7.90;85.30;;;;;;5135965;28;20340;-70
2023/03/20 06:53:44;;;;;;;;;;;7.90;85.20;;;;;;5135786;28;19916;-70
2023/03/20 06:56:10;;;;;;;;;;;7.90;85.30;;;;;;5116335;28;19942;-70
2023/03/20 06:58:36;;;;;;;;;;;8.00;85.30;;;;;;5135684;28;20006;-70
2023/03/20 07:01:07;;;;;;;;;;;7.90;85.20;;;;;;5135627;28;19946;-70
2023/03/20 07:03:33;;;;;;;;;;;8.00;85.20;;;;;;5135521;28;19916;-70
2023/03/20 07:05:59;;;;;;;;;;;8.00;85.30;;;;;;5135629;28;20007;-70
2023/03/20 07:08:24;;;;;;;;;;;8.00;85.30;;;;;;5135525;28;19916;-70
2023/03/20 07:10:50;;;;;;;;;;;7.90;85.20;;;;;;5135534;28;19915;-70
2023/03/20 07:13:16;;;;;;;;;;;8.00;85.20;;;;;;5135463;27;19915;-70
2023/03/20 07:15:41;;;;;;;;;;;7.90;85.10;;;;;;5116855;28;19920;-70
2023/03/20 07:18:07;;;;;;;;;;;8.10;85.30;;;;;;5135351;28;19915;-69
2023/03/20 07:20:33;;;;;;;;;;;8.00;85.30;;;;;;5135776;28;19980;-70
2023/03/20 07:22:58;;;;;;;;;;;8.00;85.30;;;;;;5135396;28;20395;-70
2023/03/20 07:25:24;;;;;;;;;;;8.00;85.10;;;;;;5135251;28;19915;-70
2023/03/20 07:27:49;;;;;;;;;;;8.10;85.20;;;;;;5135151;28;19976;-70
2023/03/20 07:30:15;;;;;;;;;;;8.10;85.20;;;;;;5135282;28;19915;-70
2023/03/20 07:32:41;;;;;;;;;;;8.10;85.00;;;;;;5135493;28;19916;-70
2023/03/20 07:35:08;;;;;;;;;;;8.10;85.00;;;;;;5135121;28;20027;-70
2023/03/20 07:37:33;;;;;;;;;;;8.10;85.00;;;;;;5135118;28;20398;-70
2023/03/20 07:39:59;;;;;;;;;;;8.10;85.00;;;;;;5135081;28;20013;-70
2023/03/20 07:42:24;;;;;;;;;;;8.10;85.00;;;;;;5134952;28;19919;-70
2023/03/20 07:44:50;;;;;;;;;;;8.10;85.00;;;;;;5135018;28;19972;-71
2023/03/20 07:47:16;;;;;;;;;;;8.10;84.90;;;;;;5099702;28;19911;-71
2023/03/20 07:49:41;;;;;;;;;;;8.10;85.00;;;;;;5135203;28;19915;-71
2023/03/20 07:52:07;;;;;;;;;;;8.20;84.90;;;;;;5134691;28;19922;-70
2023/03/20 07:54:33;;;;;;;;;;;8.20;85.00;;;;;;5134856;28;20014;-70
2023/03/20 07:56:59;;;;;;;;;;;8.30;85.00;;;;;;5134989;28;19916;-70
2023/03/20 07:59:24;;;;;;;;;;;8.30;84.90;;;;;;5134805;28;19919;-69
2023/03/20 08:01:51;;;;;;;;;;;8.30;84.80;;;;;;5098222;28;19963;-69
2023/03/20 08:04:18;;;;;;;;;;;8.30;84.70;;;;;;5114581;28;19967;-69
2023/03/20 08:06:44;;;;;;;;;;;8.30;85.30;;;;;;5134708;28;20411;-69
2023/03/20 08:09:09;;;;;;;;;;;8.30;84.70;;;;;;5134637;28;19919;-69
2023/03/20 08:11:35;;;;;;;;;;;8.30;84.70;;;;;;5134593;28;19918;-69
2023/03/20 08:14:00;;;;;;;;;;;8.30;84.80;;;;;;5134662;28;20023;-69
2023/03/20 08:16:26;;;;;;;;;;;8.30;84.80;;;;;;5134371;28;20353;-70
2023/03/20 08:18:52;;;;;;;;;;;8.30;84.70;;;;;;5134556;28;19915;-69
2023/03/20 08:21:18;;;;;;;;;;;8.30;84.70;;;;;;5134515;28;19916;-69
2023/03/20 08:23:43;;;;;;;;;;;8.30;84.70;;;;;;5134385;28;19957;-70
2023/03/20 08:26:09;;;;;;;;;;;8.40;84.70;;;;;;5113776;28;19985;-68
2023/03/20 08:28:34;;;;;;;;;;;8.30;84.60;;;;;;5134521;28;19915;-69
2023/03/20 08:31:01;;;;;;;;;;;8.30;84.50;;;;;;5134564;28;20365;-69
2023/03/20 08:33:26;;;;;;;;;;;8.40;84.50;;;;;;5114949;28;19937;-69
2023/03/20 08:35:56;;;;;;;;;;;8.50;84.50;;;;;;5115896;28;19919;-68
2023/03/20 08:38:22;;;;;;;;;;;8.50;84.40;;;;;;5130932;28;19916;-69
2023/03/20 08:40:47;;;;;;;;;;;8.60;84.40;;;;;;5098743;28;20011;-69
2023/03/20 08:43:13;;;;;;;;;;;8.70;84.40;;;;;;5134150;28;20014;-69
2023/03/20 08:45:38;;;;;;;;;;;8.70;84.30;;;;;;5114246;28;19916;-69
2023/03/20 08:48:04;;;;;;;;;;;8.80;84.30;;;;;;5134068;28;19912;-69
2023/03/20 08:50:30;;;;;;;;;;;8.70;84.00;;;;;;5115012;28;19926;-70
2023/03/20 08:52:55;;;;;;;;;;;8.80;84.10;;;;;;5134000;28;19975;-69
2023/03/20 08:55:21;;;;;;;;;;;8.80;84.00;;;;;;5115457;28;19919;-69
2023/03/20 08:57:46;;;;;;;;;;;8.80;83.90;;;;;;5133769;28;19915;-69
2023/03/20 09:00:14;;;;;;;;;;;8.90;83.90;;;;;;5133926;28;19916;-68
2023/03/20 09:02:40;;;;;;;;;;;8.90;83.90;;;;;;5133787;28;19923;-69
2023/03/20 09:05:06;;;;;;;;;;;9.00;83.90;;;;;;5133787;28;19915;-69
2023/03/20 09:07:31;;;;;;;;;;;9.00;83.80;;;;;;5114528;28;20376;-69
2023/03/20 09:09:57;;;;;;;;;;;9.10;83.60;;;;;;5098380;28;19966;-69
2023/03/20 09:12:23;;;;;;;;;;;9.10;83.40;;;;;;5133644;28;19915;-69
2023/03/20 09:14:48;;;;;;;;;;;9.10;83.40;;;;;;5133865;28;20388;-69
2023/03/20 09:17:14;;;;;;;;;;;9.10;83.40;;;;;;5133765;28;19916;-68
2023/03/20 09:19:43;;;;;;;;;;;9.10;83.30;;;;;;5133693;28;19915;-70
2023/03/20 09:22:10;;;;;;;;;;;9.10;83.30;;;;;;5133637;28;19915;-69
2023/03/20 09:24:35;;;;;;;;;;;9.30;83.40;;;;;;5133512;28;19915;-69
2023/03/20 09:27:01;;;;;;;;;;;9.20;83.20;;;;;;5133496;28;19915;-69
2023/03/20 09:29:26;;;;;;;;;;;9.30;83.20;;;;;;5114995;28;19970;-68
2023/03/20 09:31:53;;;;;;;;;;;9.30;83.00;;;;;;5114348;28;20007;-70
2023/03/20 09:34:19;;;;;;;;;;;9.30;82.90;;;;;;5133453;28;20006;-69
2023/03/20 09:36:45;;;;;;;;;;;9.40;82.90;;;;;;5133646;27;20376;-69
2023/03/20 09:39:10;;;;;;;;;;;9.40;83.50;;;;;;5118112;28;19923;-69
2023/03/20 09:41:36;;;;;;;;;;;9.50;82.70;;;;;;5117437;28;20430;-70
2023/03/20 09:44:15;;;;;;;;;;;9.40;82.70;;;;;;5099717;28;20288;-69
2023/03/20 09:46:55;;;;;;;;;;;9.50;82.70;;;;;;5136875;28;19916;-70
2023/03/20 09:49:35;;;;;;;;;;;9.50;82.50;;;;;;5136886;28;19915;-69
2023/03/20 09:52:09;;;;;;;;;;;9.50;82.50;;;;;;5136878;28;19919;-69
2023/03/20 09:54:38;;;;;;;;;;;9.50;82.50;;;;;;5136785;28;19960;-68
2023/03/20 09:57:05;;;;;;;;;;;9.40;82.50;;;;;;5116584;28;19926;-69
2023/03/20 09:59:33;;;;;;;;;;;9.40;82.80;;;;;;5118411;28;20261;-68
2023/03/20 10:02:03;;;;;;;;;;;9.40;82.90;;;;;;5118545;28;19915;-68
2023/03/20 10:04:29;;;;;;;;;;;9.40;83.00;;;;;;5136827;28;19922;-67
2023/03/20 10:06:55;;;;;;;;;;;9.50;83.10;;;;;;5118461;28;19915;-68
2023/03/20 10:09:24;;;;;;;;;;;9.60;83.10;;;;;;5118546;28;19915;-69
2023/03/20 10:11:57;;;;;;;;;;;9.60;82.90;;;;;;5101220;28;20005;-69
2023/03/20 10:14:26;;;;;;;;;;;9.70;82.80;;;;;;5116369;28;19922;-68
2023/03/20 10:17:00;;;;;;;;;;;9.70;82.80;;;;;;5136508;28;19915;-68
2023/03/20 10:19:27;;;;;;;;;;;9.60;82.60;;;;;;5136387;28;19922;-69
2023/03/20 10:22:03;;;;;;;;;;;9.80;83.50;;;;;;5099224;28;20549;-68
2023/03/20 10:24:32;;;;;;;;;;;9.70;82.90;;;;;;5136582;28;19915;-68
2023/03/20 10:27:02;;;;;;;;;;;9.70;82.90;;;;;;5136261;28;19916;-69
2023/03/20 10:29:32;;;;;;;;;;;9.80;82.90;;;;;;5136303;28;19970;-69
2023/03/20 10:32:10;;;;;;;;;;;9.90;82.80;;;;;;5136248;28;20447;-68
2023/03/20 10:34:47;;;;;;;;;;;9.90;82.50;;;;;;5117482;28;19920;-68
2023/03/20 10:37:18;;;;;;;;;;;9.90;82.70;;;;;;5136344;28;19915;-67
2023/03/20 10:39:53;;;;;;;;;;;9.90;82.80;;;;;;5136168;28;20372;-69
2023/03/20 10:42:23;;;;;;;;;;;9.90;83.00;;;;;;5117047;28;19923;-68
2023/03/20 10:44:52;;;;;;;;;;;10.00;83.00;;;;;;5117635;28;19916;-69
2023/03/20 10:47:20;;;;;;;;;;;10.00;82.80;;;;;;5117839;28;19915;-70
2023/03/20 10:49:51;;;;;;;;;;;10.10;82.80;;;;;;5135163;27;20010;-69
2023/03/20 10:52:18;;;;;;;;;;;10.10;82.70;;;;;;5135895;28;19938;-68
2023/03/20 10:54:47;;;;;;;;;;;10.20;82.70;;;;;;5136214;28;19926;-68
2023/03/20 10:57:16;;;;;;;;;;;10.20;82.60;;;;;;5135842;28;20416;-68
2023/03/20 10:59:47;;;;;;;;;;;10.30;82.50;;;;;;5117679;28;20020;-68
2023/03/20 11:02:14;;;;;;;;;;;10.20;82.40;;;;;;5135490;28;19915;-68
2023/03/20 11:04:39;;;;;;;;;;;10.20;82.50;;;;;;5117546;28;19923;-68
2023/03/20 11:07:20;;;;;;;;;;;10.20;82.50;;;;;;5117126;28;19918;-69
2023/03/20 11:09:45;;;;;;;;;;;10.10;82.70;;;;;;5135532;28;20373;-68
2023/03/20 11:12:15;;;;;;;;;;;10.10;82.90;;;;;;5135668;28;19911;-68
2023/03/20 11:14:40;;;;;;;;;;;10.10;83.00;;;;;;5135545;28;19927;-68
2023/03/20 11:17:06;;;;;;;;;;;10.10;82.90;;;;;;5135545;28;19921;-68
2023/03/20 11:19:33;;;;;;;;;;;10.00;82.90;;;;;;5135454;28;19938;-70
2023/03/20 11:22:01;;;;;;;;;;;10.10;83.00;;;;;;5135185;28;20005;-68
2023/03/20 11:24:41;;;;;;;;;;;10.10;83.10;;;;;;5135482;28;19922;-68
2023/03/20 11:27:08;;;;;;;;;;;10.00;83.20;;;;;;5134587;28;19915;-69
2023/03/20 11:29:34;;;;;;;;;;;10.00;83.40;;;;;;5135739;28;19919;-68
2023/03/20 11:32:20;;;;;;;;;;;10.00;83.30;;;;;;5135437;28;19923;-68
2023/03/20 11:34:56;;;;;;;;;;;10.00;83.30;;;;;;5134712;28;19920;-68
2023/03/20 11:37:24;;;;;;;;;;;10.00;83.40;;;;;;5134965;28;19916;-68
2023/03/20 11:39:56;;;;;;;;;;;10.00;83.30;;;;;;5117482;28;19937;-68
2023/03/20 11:42:23;;;;;;;;;;;9.90;83.30;;;;;;5135853;28;19921;-67
2023/03/20 11:44:56;;;;;;;;;;;10.00;83.40;;;;;;5116164;28;19923;-69
2023/03/20 11:47:23;;;;;;;;;;;10.10;83.20;;;;;;5135097;28;19925;-68
2023/03/20 11:49:57;;;;;;;;;;;10.10;83.10;;;;;;5134946;28;19915;-68
2023/03/20 11:52:24;;;;;;;;;;;10.20;83.10;;;;;;5134849;28;19968;-68
2023/03/20 11:54:52;;;;;;;;;;;10.30;83.50;;;;;;5134869;28;19927;-67
2023/03/20 11:57:33;;;;;;;;;;;10.30;82.60;;;;;;5134766;28;19931;-67
2023/03/20 12:00:04;;;;;;;;;;;10.40;82.70;;;;;;5134867;27;19922;-67
2023/03/20 12:02:30;;;;;;;;;;;10.40;82.50;;;;;;5134823;28;19958;-69
2023/03/20 12:04:58;;;;;;;;;;;10.40;82.40;;;;;;5134818;28;19919;-67
2023/03/20 12:07:29;;;;;;;;;;;10.40;82.40;;;;;;5116345;28;19922;-69
2023/03/20 12:09:57;;;;;;;;;;;10.40;82.50;;;;;;5134735;28;19916;-69
2023/03/20 12:12:42;;;;;;;;;;;10.50;82.50;;;;;;5134573;28;19923;-69
2023/03/20 12:15:27;;;;;;;;;;;10.50;82.20;;;;;;5119261;28;19927;-68
2023/03/20 12:18:00;;;;;;;;;;;10.30;82.30;;;;;;5118148;28;19930;-68
2023/03/20 12:20:29;;;;;;;;;;;10.40;82.60;;;;;;5134656;28;19917;-69
2023/03/20 12:23:05;;;;;;;;;;;10.30;82.80;;;;;;5134608;28;20334;-69
2023/03/20 12:25:45;;;;;;;;;;;10.20;82.70;;;;;;5112659;28;19912;-69
2023/03/20 12:28:16;;;;;;;;;;;10.20;82.90;;;;;;5133403;28;20010;-68
2023/03/20 12:31:02;;;;;;;;;;;10.20;82.90;;;;;;5134274;28;19915;-68
2023/03/20 12:33:37;;;;;;;;;;;10.10;82.80;;;;;;5118226;28;19918;-68
2023/03/20 12:36:03;;;;;;;;;;;10.10;83.00;;;;;;5134028;28;19925;-70
2023/03/20 12:38:31;;;;;;;;;;;10.00;83.10;;;;;;5134144;28;20018;-68
2023/03/20 12:41:04;;;;;;;;;;;10.00;83.70;;;;;;5116318;28;19923;-69
2023/03/20 12:43:35;;;;;;;;;;;10.00;83.30;;;;;;5134210;28;20002;-69
2023/03/20 12:46:20;;;;;;;;;;;10.00;83.40;;;;;;5133995;28;19923;-68
2023/03/20 12:48:56;;;;;;;;;;;10.00;83.30;;;;;;5134321;28;19915;-68
2023/03/20 12:51:31;;;;;;;;;;;9.90;83.20;;;;;;5134010;28;19923;-68
2023/03/20 12:54:08;;;;;;;;;;;10.00;83.30;;;;;;5114847;28;19961;-69
2023/03/20 12:56:48;;;;;;;;;;;10.00;83.20;;;;;;5133790;28;19920;-70
2023/03/20 12:59:23;;;;;;;;;;;10.10;83.10;;;;;;5133901;28;19915;-69
2023/03/20 13:01:54;;;;;;;;;;;10.00;83.10;;;;;;5133872;28;19915;-68
2023/03/20 13:04:39;;;;;;;;;;;10.00;83.10;;;;;;5134079;28;19915;-68
2023/03/20 13:07:10;;;;;;;;;;;10.10;83.10;;;;;;5134329;28;19915;-68
2023/03/20 13:09:50;;;;;;;;;;;10.20;83.10;;;;;;5133957;28;19923;-67
2023/03/20 13:12:29;;;;;;;;;;;10.20;83.00;;;;;;5133169;27;19916;-68
2023/03/20 13:15:05;;;;;;;;;;;10.20;82.90;;;;;;5133634;28;19926;-68
2023/03/20 13:17:44;;;;;;;;;;;10.20;82.70;;;;;;5133636;28;19915;-68
2023/03/20 13:20:20;;;;;;;;;;;10.30;82.90;;;;;;5113593;28;19916;-68
2023/03/20 13:22:52;;;;;;;;;;;10.20;82.80;;;;;;5114294;28;20280;-69
2023/03/20 13:25:30;;;;;;;;;;;10.30;82.90;;;;;;5133604;28;19915;-68
2023/03/20 13:28:01;;;;;;;;;;;10.20;82.90;;;;;;5133475;28;19919;-68
2023/03/20 13:30:32;;;;;;;;;;;10.30;82.90;;;;;;5133816;28;19922;-68
2023/03/20 13:33:17;;;;;;;;;;;10.30;83.10;;;;;;5133692;28;19919;-68
2023/03/20 13:36:01;;;;;;;;;;;10.30;83.10;;;;;;5116907;28;19965;-68
2023/03/20 13:38:30;;;;;;;;;;;10.30;83.80;;;;;;5111073;28;19938;-68
2023/03/20 13:40:59;;;;;;;;;;;10.30;83.40;;;;;;5133358;28;19920;-68
2023/03/20 13:43:33;;;;;;;;;;;10.20;83.30;;;;;;5114835;28;19916;-68
2023/03/20 13:46:07;;;;;;;;;;;10.20;83.40;;;;;;5112782;28;20323;-67
2023/03/20 13:48:37;;;;;;;;;;;10.10;83.50;;;;;;5096275;28;19915;-69
2023/03/20 13:51:06;;;;;;;;;;;10.10;83.70;;;;;;5132792;28;19911;-69
2023/03/20 13:53:44;;;;;;;;;;;10.10;83.80;;;;;;5095528;28;20010;-68
2023/03/20 13:56:15;;;;;;;;;;;10.10;83.90;;;;;;5114953;28;19934;-68
2023/03/20 13:58:57;;;;;;;;;;;10.10;84.50;;;;;;5132915;28;19927;-68
2023/03/20 14:01:27;;;;;;;;;;;10.10;83.80;;;;;;5113801;28;19962;-69
2023/03/20 14:03:53;;;;;;;;;;;10.10;83.80;;;;;;5133077;28;19915;-68
2023/03/20 14:06:33;;;;;;;;;;;10.00;83.90;;;;;;5133036;28;19922;-69
2023/03/20 14:08:58;;;;;;;;;;;10.00;84.00;;;;;;5133084;28;19916;-68
2023/03/20 14:11:31;;;;;;;;;;;10.00;84.10;;;;;;5097534;28;19923;-69
2023/03/20 14:14:01;;;;;;;;;;;10.00;84.00;;;;;;5132732;28;19921;-68
2023/03/20 14:16:27;;;;;;;;;;;10.00;84.20;;;;;;5096739;28;20365;-69
2023/03/20 14:19:04;;;;;;;;;;;9.90;84.20;;;;;;5132838;28;19922;-68
2023/03/20 14:21:30;;;;;;;;;;;9.90;84.20;;;;;;5132723;28;19960;-68
2023/03/20 14:23:59;;;;;;;;;;;9.90;84.40;;;;;;5113787;28;20315;-68
2023/03/20 14:26:26;;;;;;;;;;;9.90;84.40;;;;;;5100937;28;19960;-69
2023/03/20 14:29:01;;;;;;;;;;;10.00;84.40;;;;;;5136377;28;20396;-69
2023/03/20 14:31:31;;;;;;;;;;;10.00;84.40;;;;;;5136166;28;20005;-69
2023/03/20 14:33:59;;;;;;;;;;;9.90;84.40;;;;;;5136310;28;19915;-69
2023/03/20 14:36:26;;;;;;;;;;;9.90;84.60;;;;;;5136193;28;19919;-69